Time;durP1;ratioP1;P1;durP2;ratioP2;P2;SDS_P1;SDS_P2;PMS_P1;PMS_P2;Temp;Humidity;BMP_temperature;BMP_pressure;BME280_temperature;BME280_humidity;BME280_pressure;Samples;Min_cycle;Max_cycle;Signal;HPM_P1;HPM_P2
2021/12/09 00:01:01;;;;;;;1.80;0.30;;;4.50;99.90;;;;;;5035087;28;20506;-50
2021/12/09 00:03:29;;;;;;;0.40;0.23;;;4.50;99.90;;;;;;5035381;28;20460;-54
2021/12/09 00:06:00;;;;;;;0.40;0.20;;;4.30;99.90;;;;;;5033757;28;20444;-54
2021/12/09 00:08:29;;;;;;;0.40;0.23;;;4.30;99.90;;;;;;5033127;28;20575;-55
2021/12/09 00:10:59;;;;;;;0.53;0.20;;;4.20;99.90;;;;;;5034195;28;20454;-54
2021/12/09 00:13:28;;;;;;;0.40;0.20;;;4.10;99.90;;;;;;5034363;28;20548;-55
2021/12/09 00:16:01;;;;;;;0.47;0.20;;;4.00;99.90;;;;;;5033841;28;20536;-54
2021/12/09 00:18:28;;;;;;;2.10;0.40;;;4.10;99.90;;;;;;5034054;28;20550;-54
2021/12/09 00:20:55;;;;;;;1.17;0.30;;;4.00;99.90;;;;;;5034953;28;20537;-50
2021/12/09 00:23:22;;;;;;;0.50;0.20;;;4.00;99.90;;;;;;5033146;28;20848;-53
2021/12/09 00:25:49;;;;;;;0.80;0.20;;;3.90;99.90;;;;;;5033693;28;20463;-52
2021/12/09 00:28:16;;;;;;;0.73;0.30;;;3.90;99.90;;;;;;5033825;28;20926;-55
2021/12/09 00:30:43;;;;;;;0.60;0.20;;;3.90;99.90;;;;;;5034146;28;20510;-56
2021/12/09 00:33:15;;;;;;;0.60;0.20;;;3.80;99.90;;;;;;5035625;28;20476;-52
2021/12/09 00:35:46;;;;;;;0.40;0.17;;;3.80;99.90;;;;;;5036658;28;20810;-55
2021/12/09 00:38:21;;;;;;;0.33;0.13;;;3.80;99.90;;;;;;5035598;28;20742;-57
2021/12/09 00:40:50;;;;;;;0.60;0.20;;;3.80;99.90;;;;;;5034513;28;20495;-55
2021/12/09 00:43:18;;;;;;;0.57;0.30;;;3.90;99.90;;;;;;5034155;28;20499;-56
2021/12/09 00:45:46;;;;;;;0.57;0.30;;;3.90;99.90;;;;;;5035454;28;20454;-57
2021/12/09 00:48:14;;;;;;;0.40;0.20;;;3.80;99.90;;;;;;5034818;28;20523;-56
2021/12/09 00:50:42;;;;;;;1.33;0.27;;;3.80;99.90;;;;;;5035436;28;20747;-57
2021/12/09 00:53:10;;;;;;;0.53;0.20;;;3.70;99.90;;;;;;5035474;28;20543;-56
2021/12/09 00:55:37;;;;;;;0.73;0.30;;;3.70;99.90;;;;;;5036517;28;20958;-55
2021/12/09 00:58:06;;;;;;;0.87;0.33;;;3.60;99.90;;;;;;5036813;28;20945;-56
2021/12/09 01:00:33;;;;;;;0.47;0.20;;;3.60;99.90;;;;;;5036801;28;20535;-56
2021/12/09 01:03:00;;;;;;;0.50;0.30;;;3.60;99.90;;;;;;5034136;28;20583;-56
2021/12/09 01:05:29;;;;;;;0.50;0.20;;;3.60;99.90;;;;;;5034611;28;20892;-55
2021/12/09 01:07:57;;;;;;;0.40;0.20;;;3.60;99.90;;;;;;5034384;28;20921;-56
2021/12/09 01:10:25;;;;;;;0.40;0.20;;;3.60;99.90;;;;;;5034791;28;20594;-56
2021/12/09 01:12:53;;;;;;;0.40;0.10;;;3.60;99.90;;;;;;5033016;28;20907;-55
2021/12/09 01:15:20;;;;;;;0.50;0.30;;;3.60;99.90;;;;;;5033290;28;20726;-55
2021/12/09 01:17:49;;;;;;;1.13;0.30;;;3.50;99.90;;;;;;5032316;28;20459;-55
2021/12/09 01:20:19;;;;;;;0.40;0.20;;;3.50;99.90;;;;;;5032606;28;20514;-56
2021/12/09 01:22:47;;;;;;;0.50;0.20;;;3.40;99.90;;;;;;5033041;28;20913;-56
2021/12/09 01:25:17;;;;;;;0.43;0.27;;;3.50;99.90;;;;;;5034923;28;20426;-57
2021/12/09 01:27:49;;;;;;;0.40;0.20;;;3.50;99.90;;;;;;5035906;28;20422;-54
2021/12/09 01:30:19;;;;;;;0.50;0.20;;;3.50;99.90;;;;;;5036421;28;20553;-57
2021/12/09 01:32:51;;;;;;;0.60;0.30;;;3.50;99.90;;;;;;5035258;28;20418;-56
2021/12/09 01:35:20;;;;;;;1.00;0.33;;;3.50;99.90;;;;;;5034685;28;20448;-56
2021/12/09 01:37:49;;;;;;;1.77;0.30;;;3.50;99.90;;;;;;5034542;28;20484;-55
2021/12/09 01:40:16;;;;;;;0.97;0.40;;;3.50;99.90;;;;;;5033968;28;20484;-56
2021/12/09 01:42:43;;;;;;;1.90;0.47;;;3.50;99.90;;;;;;5033569;28;20459;-53
2021/12/09 01:45:11;;;;;;;0.80;0.47;;;3.50;99.90;;;;;;5033878;28;20614;-54
2021/12/09 01:47:39;;;;;;;0.50;0.30;;;3.50;99.90;;;;;;5033752;28;20510;-56
2021/12/09 01:50:07;;;;;;;0.80;0.37;;;3.50;99.90;;;;;;5033815;28;20549;-55
2021/12/09 01:52:35;;;;;;;0.70;0.37;;;3.50;99.90;;;;;;5033179;28;20439;-57
2021/12/09 01:55:04;;;;;;;0.80;0.50;;;3.50;99.90;;;;;;5034069;28;20446;-54
2021/12/09 01:57:31;;;;;;;2.80;0.50;;;3.50;99.90;;;;;;5034060;28;20457;-53
2021/12/09 01:59:58;;;;;;;2.50;0.50;;;3.50;99.90;;;;;;5034173;28;20535;-56
2021/12/09 02:02:25;;;;;;;0.60;0.40;;;3.50;99.90;;;;;;5033180;28;20509;-56
2021/12/09 02:04:52;;;;;;;0.73;0.47;;;3.50;99.90;;;;;;5035479;28;20521;-52
2021/12/09 02:07:19;;;;;;;0.50;0.40;;;3.60;99.90;;;;;;5036116;28;20534;-55
2021/12/09 02:09:46;;;;;;;1.57;0.63;;;3.60;99.90;;;;;;5036092;28;20573;-54
2021/12/09 02:12:14;;;;;;;0.90;0.53;;;3.70;99.90;;;;;;5035956;28;20547;-54
2021/12/09 02:14:43;;;;;;;1.30;0.60;;;3.70;99.90;;;;;;5036001;28;20547;-57
2021/12/09 02:17:11;;;;;;;2.40;0.77;;;3.70;99.90;;;;;;5035691;28;20452;-55
2021/12/09 02:19:42;;;;;;;0.93;0.50;;;3.80;99.90;;;;;;5036090;28;20514;-56
2021/12/09 02:22:10;;;;;;;1.07;0.50;;;3.80;99.90;;;;;;5035422;28;20510;-57
2021/12/09 02:24:39;;;;;;;0.90;0.50;;;3.80;99.90;;;;;;5035080;28;20958;-57
2021/12/09 02:27:06;;;;;;;3.23;1.10;;;3.80;99.90;;;;;;5034244;28;20811;-56
2021/12/09 02:29:33;;;;;;;0.87;0.60;;;3.80;99.90;;;;;;5033281;28;20583;-55
2021/12/09 02:32:01;;;;;;;1.53;0.50;;;3.90;99.90;;;;;;5033403;28;20547;-56
2021/12/09 02:34:29;;;;;;;1.70;0.67;;;3.90;99.90;;;;;;5033787;28;20700;-56
2021/12/09 02:36:56;;;;;;;1.63;0.60;;;3.90;99.90;;;;;;5033236;28;20458;-55
2021/12/09 02:39:24;;;;;;;1.23;0.67;;;4.00;99.90;;;;;;5033495;28;20456;-56
2021/12/09 02:41:52;;;;;;;1.10;0.60;;;4.00;99.90;;;;;;5033865;28;20547;-57
2021/12/09 02:44:21;;;;;;;1.93;0.60;;;4.10;99.90;;;;;;5034506;28;20460;-56
2021/12/09 02:46:50;;;;;;;1.03;0.60;;;4.10;99.90;;;;;;5034367;28;20459;-56
2021/12/09 02:49:19;;;;;;;3.83;0.80;;;4.10;99.90;;;;;;5034679;28;20523;-56
2021/12/09 02:51:48;;;;;;;1.27;0.60;;;4.10;99.90;;;;;;5034212;28;20518;-55
2021/12/09 02:54:17;;;;;;;2.07;0.60;;;4.10;99.90;;;;;;5033353;28;20589;-55
2021/12/09 02:56:47;;;;;;;1.50;0.60;;;4.10;99.90;;;;;;5033041;28;20566;-53
2021/12/09 02:59:14;;;;;;;1.10;0.63;;;4.10;99.90;;;;;;5031808;28;20559;-54
2021/12/09 03:01:51;;;;;;;4.07;0.60;;;4.10;99.90;;;;;;5030905;28;20509;-56
2021/12/09 03:04:18;;;;;;;3.13;0.60;;;4.10;99.90;;;;;;5031396;28;20566;-56
2021/12/09 03:06:45;;;;;;;1.00;0.60;;;4.10;99.90;;;;;;5035425;28;20851;-56
2021/12/09 03:09:15;;;;;;;1.77;0.53;;;4.20;99.90;;;;;;5036393;28;20492;-54
2021/12/09 03:11:48;;;;;;;3.80;0.50;;;4.20;99.90;;;;;;5037920;28;20533;-56
2021/12/09 03:14:15;;;;;;;3.70;0.70;;;4.20;99.90;;;;;;5038208;28;20556;-56
2021/12/09 03:16:42;;;;;;;1.77;0.80;;;4.20;99.90;;;;;;5037321;28;20883;-53
2021/12/09 03:19:09;;;;;;;1.57;0.60;;;4.20;99.90;;;;;;5038736;28;20801;-55
2021/12/09 03:21:39;;;;;;;1.00;0.50;;;4.20;99.90;;;;;;5038650;28;20856;-56
2021/12/09 03:24:09;;;;;;;4.83;0.50;;;4.20;99.90;;;;;;5038842;28;20555;-54
2021/12/09 03:26:40;;;;;;;1.70;0.60;;;4.20;99.90;;;;;;5039091;28;20836;-56
2021/12/09 03:29:11;;;;;;;1.13;0.50;;;4.20;99.90;;;;;;5038851;28;20533;-56
2021/12/09 03:31:39;;;;;;;4.33;0.70;;;4.20;99.90;;;;;;5038836;28;20524;-56
2021/12/09 03:34:06;;;;;;;1.20;0.50;;;4.30;99.90;;;;;;5038803;28;20555;-54
2021/12/09 03:36:34;;;;;;;1.23;0.60;;;4.20;99.90;;;;;;5037363;28;20543;-56
2021/12/09 03:39:07;;;;;;;1.37;0.90;;;4.30;99.90;;;;;;5038128;28;20546;-55
2021/12/09 03:41:34;;;;;;;1.20;0.60;;;4.30;99.90;;;;;;5037419;28;20793;-55
2021/12/09 03:44:01;;;;;;;3.80;0.90;;;4.30;99.90;;;;;;5038321;28;20494;-55
2021/12/09 03:46:29;;;;;;;0.67;0.50;;;4.20;99.90;;;;;;5036926;28;20513;-56
2021/12/09 03:48:56;;;;;;;2.90;0.70;;;4.20;99.90;;;;;;5037020;28;20928;-55
2021/12/09 03:51:23;;;;;;;3.63;0.60;;;4.20;99.90;;;;;;5037103;28;20549;-56
2021/12/09 03:53:51;;;;;;;0.90;0.50;;;4.20;99.90;;;;;;5037119;28;20810;-55
2021/12/09 03:56:18;;;;;;;2.10;0.67;;;4.20;99.90;;;;;;5037094;28;20423;-57
2021/12/09 03:58:45;;;;;;;1.37;0.70;;;4.20;99.90;;;;;;5036904;28;20957;-57
2021/12/09 04:01:12;;;;;;;3.80;0.80;;;4.20;99.90;;;;;;5036132;28;20802;-55
2021/12/09 04:03:40;;;;;;;0.67;0.50;;;4.20;99.90;;;;;;5037675;28;20559;-56
2021/12/09 04:06:07;;;;;;;7.33;0.60;;;4.20;99.90;;;;;;5036282;28;20822;-55
2021/12/09 04:08:34;;;;;;;1.27;0.80;;;4.10;99.90;;;;;;5035993;28;20554;-55
2021/12/09 04:11:01;;;;;;;1.47;0.50;;;4.10;99.90;;;;;;5036066;28;20549;-56
2021/12/09 04:13:30;;;;;;;1.70;0.70;;;4.10;99.90;;;;;;5036493;28;20522;-53
2021/12/09 04:15:57;;;;;;;3.40;0.60;;;4.20;99.90;;;;;;5035160;28;20416;-53
2021/12/09 04:18:24;;;;;;;1.60;0.73;;;4.20;99.90;;;;;;5035264;28;20559;-56
2021/12/09 04:20:52;;;;;;;1.13;0.60;;;4.20;99.90;;;;;;5035894;28;20535;-56
2021/12/09 04:23:23;;;;;;;2.37;0.70;;;4.20;99.90;;;;;;5035617;28;20822;-57
2021/12/09 04:25:50;;;;;;;0.93;0.60;;;4.20;99.90;;;;;;5036132;28;20542;-56
2021/12/09 04:28:17;;;;;;;2.27;0.70;;;4.20;99.90;;;;;;5035011;28;20484;-56
2021/12/09 04:30:44;;;;;;;2.37;0.70;;;4.20;99.90;;;;;;5036592;28;20484;-55
2021/12/09 04:33:10;;;;;;;2.63;0.50;;;4.10;99.90;;;;;;5035621;28;20551;-56
2021/12/09 04:35:37;;;;;;;0.90;0.60;;;4.10;99.90;;;;;;5035920;28;20978;-57
2021/12/09 04:38:06;;;;;;;0.63;0.40;;;4.10;99.90;;;;;;5036353;28;20542;-57
2021/12/09 04:40:33;;;;;;;5.47;0.60;;;4.10;99.90;;;;;;5035675;28;20527;-56
2021/12/09 04:43:00;;;;;;;1.20;0.50;;;4.00;99.90;;;;;;5035632;28;20452;-56
2021/12/09 04:45:28;;;;;;;1.27;0.50;;;4.10;99.90;;;;;;5036104;28;20726;-53
2021/12/09 04:47:55;;;;;;;0.70;0.40;;;4.10;99.90;;;;;;5036799;28;20453;-53
2021/12/09 04:50:22;;;;;;;1.27;0.50;;;4.00;99.90;;;;;;5036590;28;20519;-57
2021/12/09 04:52:49;;;;;;;1.53;0.70;;;4.00;99.90;;;;;;5036663;28;20455;-51
2021/12/09 04:55:17;;;;;;;1.60;0.50;;;4.00;99.90;;;;;;5037012;28;20519;-56
2021/12/09 04:57:44;;;;;;;0.70;0.47;;;4.00;99.90;;;;;;5036479;28;21109;-55
2021/12/09 05:00:15;;;;;;;0.80;0.53;;;4.00;99.90;;;;;;5035516;28;20540;-57
2021/12/09 05:03:02;;;;;;;0.50;0.40;;;4.10;99.90;;;;;;5033944;28;20546;-54
2021/12/09 05:05:33;;;;;;;9.57;0.40;;;4.10;99.90;;;;;;5035846;28;20858;-56
2021/12/09 05:08:00;;;;;;;1.57;0.43;;;4.20;99.90;;;;;;5035277;28;20877;-57
2021/12/09 05:10:34;;;;;;;1.60;0.40;;;4.20;99.90;;;;;;5035741;28;20512;-55
2021/12/09 05:13:01;;;;;;;3.60;0.60;;;4.20;99.90;;;;;;5035280;28;20550;-57
2021/12/09 05:15:28;;;;;;;0.63;0.50;;;4.10;99.90;;;;;;5035109;28;20935;-57
2021/12/09 05:17:55;;;;;;;0.70;0.40;;;4.10;99.90;;;;;;5035929;28;20878;-57
2021/12/09 05:20:22;;;;;;;0.77;0.40;;;4.10;99.90;;;;;;5035542;28;20939;-57
2021/12/09 05:22:49;;;;;;;1.00;0.50;;;4.10;99.90;;;;;;5036146;28;20448;-57
2021/12/09 05:25:16;;;;;;;0.77;0.50;;;4.10;99.90;;;;;;5036135;28;20514;-57
2021/12/09 05:27:44;;;;;;;0.83;0.40;;;4.10;99.90;;;;;;5036061;28;20523;-55
2021/12/09 05:30:14;;;;;;;0.60;0.33;;;4.10;99.90;;;;;;5034362;28;20538;-57
2021/12/09 05:32:40;;;;;;;0.80;0.33;;;4.10;99.90;;;;;;5033655;28;20794;-56
2021/12/09 05:35:08;;;;;;;3.40;0.30;;;4.10;99.90;;;;;;5035514;28;20778;-57
2021/12/09 05:37:35;;;;;;;0.60;0.30;;;4.20;99.90;;;;;;5035522;28;20930;-57
2021/12/09 05:40:02;;;;;;;0.60;0.50;;;4.30;99.90;;;;;;5034584;28;20938;-56
2021/12/09 05:42:29;;;;;;;1.47;0.30;;;4.30;99.90;;;;;;5034950;28;20472;-55
2021/12/09 05:44:59;;;;;;;0.50;0.30;;;4.30;99.90;;;;;;5034642;28;20924;-58
2021/12/09 05:47:26;;;;;;;3.73;0.40;;;4.30;99.90;;;;;;5034730;28;20502;-57
2021/12/09 05:49:53;;;;;;;2.17;0.60;;;4.30;99.90;;;;;;5034443;28;20650;-58
2021/12/09 05:52:20;;;;;;;1.57;0.50;;;4.20;99.90;;;;;;5035107;28;20455;-58
2021/12/09 05:54:48;;;;;;;0.70;0.40;;;4.20;99.90;;;;;;5033666;28;20957;-58
2021/12/09 05:57:15;;;;;;;1.13;0.40;;;4.10;99.90;;;;;;5033846;28;20507;-56
2021/12/09 05:59:44;;;;;;;0.60;0.40;;;4.10;99.90;;;;;;5032517;28;20467;-58
2021/12/09 06:02:16;;;;;;;1.07;0.40;;;4.10;99.90;;;;;;5032020;28;20527;-58
2021/12/09 06:04:43;;;;;;;0.97;0.40;;;4.10;99.90;;;;;;5033059;28;20499;-57
2021/12/09 06:07:11;;;;;;;2.00;0.40;;;4.00;99.90;;;;;;5034392;28;20447;-58
2021/12/09 06:09:38;;;;;;;1.20;0.40;;;4.10;99.90;;;;;;5034173;28;20543;-56
2021/12/09 06:12:06;;;;;;;0.70;0.40;;;4.00;99.90;;;;;;5032352;28;20575;-57
2021/12/09 06:14:33;;;;;;;0.70;0.40;;;4.10;99.90;;;;;;5031363;28;20456;-58
2021/12/09 06:17:00;;;;;;;1.37;0.30;;;4.10;99.90;;;;;;5031710;28;20514;-51
2021/12/09 06:19:29;;;;;;;3.70;0.40;;;4.10;99.90;;;;;;5032225;28;20547;-53
2021/12/09 06:21:55;;;;;;;0.67;0.30;;;4.20;99.90;;;;;;5033055;28;20497;-52
2021/12/09 06:24:23;;;;;;;1.70;0.40;;;4.40;99.90;;;;;;5033170;28;20547;-53
2021/12/09 06:26:50;;;;;;;1.17;0.30;;;4.50;99.90;;;;;;5033396;28;20764;-54
2021/12/09 06:29:17;;;;;;;0.80;0.40;;;4.60;99.90;;;;;;5033075;28;20518;-58
2021/12/09 06:31:44;;;;;;;1.53;0.43;;;4.60;99.90;;;;;;5033551;28;20567;-58
2021/12/09 06:34:12;;;;;;;1.20;0.37;;;4.50;99.90;;;;;;5032644;28;20550;-58
2021/12/09 06:36:41;;;;;;;13.10;0.50;;;4.40;99.90;;;;;;5033235;28;20459;-58
2021/12/09 06:39:09;;;;;;;1.60;0.40;;;4.30;99.90;;;;;;5033228;28;20555;-58
2021/12/09 06:41:36;;;;;;;0.57;0.40;;;4.20;99.90;;;;;;5036192;28;20572;-58
2021/12/09 06:44:03;;;;;;;0.67;0.30;;;4.20;99.90;;;;;;5036841;28;20477;-58
2021/12/09 06:46:30;;;;;;;0.50;0.30;;;4.20;99.90;;;;;;5036541;28;20483;-57
2021/12/09 06:48:58;;;;;;;0.93;0.40;;;4.20;99.90;;;;;;5037574;28;20870;-57
2021/12/09 06:51:25;;;;;;;2.73;0.30;;;4.20;99.90;;;;;;5037302;28;20489;-58
2021/12/09 06:53:53;;;;;;;0.60;0.40;;;4.20;99.90;;;;;;5035923;28;20570;-58
2021/12/09 06:56:20;;;;;;;0.70;0.37;;;4.20;99.90;;;;;;5036315;28;20820;-58
2021/12/09 06:58:47;;;;;;;0.43;0.30;;;4.10;99.90;;;;;;5037197;28;20801;-58
2021/12/09 07:01:14;;;;;;;0.97;0.40;;;4.20;99.90;;;;;;5034812;28;20814;-58
2021/12/09 07:03:41;;;;;;;0.67;0.40;;;4.20;99.90;;;;;;5037608;28;20483;-58
2021/12/09 07:06:16;;;;;;;1.27;0.40;;;4.20;99.90;;;;;;5037297;28;20454;-58
2021/12/09 07:08:48;;;;;;;1.03;0.73;;;4.40;99.90;;;;;;5037341;28;20434;-57
2021/12/09 07:11:20;;;;;;;0.93;0.40;;;4.60;99.90;;;;;;5037247;28;20492;-58
2021/12/09 07:13:55;;;;;;;1.30;0.33;;;4.70;99.90;;;;;;5037769;28;20888;-58
2021/12/09 07:16:22;;;;;;;1.60;0.53;;;4.90;99.90;;;;;;5037693;28;20557;-58
2021/12/09 07:18:50;;;;;;;0.80;0.30;;;4.90;99.90;;;;;;5036215;28;20791;-58
2021/12/09 07:21:17;;;;;;;0.50;0.40;;;4.90;99.90;;;;;;5033784;28;20615;-58
2021/12/09 07:23:49;;;;;;;0.40;0.27;;;5.10;99.90;;;;;;5035448;28;20502;-57
2021/12/09 07:26:17;;;;;;;1.20;0.37;;;5.00;99.90;;;;;;5035257;28;20458;-54
2021/12/09 07:28:47;;;;;;;1.00;0.50;;;4.80;99.90;;;;;;5031799;28;20853;-50
2021/12/09 07:31:14;;;;;;;1.93;0.30;;;4.70;99.90;;;;;;5033995;28;20519;-52
2021/12/09 07:33:41;;;;;;;1.90;0.40;;;4.80;99.90;;;;;;5035769;28;20538;-50
2021/12/09 07:36:08;;;;;;;0.90;0.40;;;4.70;99.90;;;;;;5033337;28;20563;-54
2021/12/09 07:38:38;;;;;;;2.50;0.47;;;4.70;99.90;;;;;;5034225;28;20455;-53
2021/12/09 07:41:05;;;;;;;1.10;0.50;;;4.90;99.90;;;;;;5034031;28;20551;-53
2021/12/09 07:43:34;;;;;;;1.00;0.40;;;5.00;99.90;;;;;;5033188;28;20818;-55
2021/12/09 07:46:01;;;;;;;0.70;0.50;;;5.20;99.90;;;;;;5033812;28;20700;-55
2021/12/09 07:48:28;;;;;;;1.03;0.40;;;5.30;99.90;;;;;;5033609;28;21035;-54
2021/12/09 07:50:57;;;;;;;2.50;0.40;;;5.60;99.90;;;;;;5034328;28;20575;-54
2021/12/09 07:53:27;;;;;;;1.37;0.30;;;5.70;99.90;;;;;;5034639;28;20475;-55
2021/12/09 07:55:55;;;;;;;3.17;0.40;;;5.40;99.90;;;;;;5033809;28;20546;-56
2021/12/09 07:58:23;;;;;;;0.60;0.40;;;5.20;99.90;;;;;;5032498;28;20452;-57
2021/12/09 08:00:53;;;;;;;4.30;0.50;;;5.10;99.90;;;;;;5033409;28;20835;-56
2021/12/09 08:03:20;;;;;;;0.63;0.30;;;5.10;99.90;;;;;;5034187;28;20497;-57
2021/12/09 08:05:48;;;;;;;0.80;0.50;;;5.00;99.90;;;;;;5033718;28;20825;-54
2021/12/09 08:08:15;;;;;;;1.90;0.50;;;5.00;99.90;;;;;;5033882;28;20518;-55
2021/12/09 08:10:42;;;;;;;1.20;0.27;;;4.90;99.90;;;;;;5033646;28;21009;-56
2021/12/09 08:13:09;;;;;;;1.90;0.50;;;5.00;99.90;;;;;;5034066;28;20527;-54
2021/12/09 08:15:45;;;;;;;1.03;0.30;;;5.10;99.90;;;;;;5033238;28;20990;-56
2021/12/09 08:18:27;;;;;;;1.63;0.40;;;5.30;99.90;;;;;;5033783;28;20457;-56
2021/12/09 08:20:58;;;;;;;6.20;0.50;;;5.50;99.90;;;;;;5035391;28;20511;-55
2021/12/09 08:23:26;;;;;;;0.80;0.40;;;5.60;99.90;;;;;;5034679;28;20553;-56
2021/12/09 08:25:53;;;;;;;2.07;0.30;;;5.40;99.90;;;;;;5033993;28;20496;-56
2021/12/09 08:28:20;;;;;;;0.70;0.40;;;5.00;99.90;;;;;;5033409;28;21004;-52
2021/12/09 08:30:50;;;;;;;0.60;0.30;;;4.70;99.90;;;;;;5034283;28;20552;-54
2021/12/09 08:33:19;;;;;;;0.70;0.40;;;4.80;99.90;;;;;;5033448;28;20849;-58
2021/12/09 08:35:46;;;;;;;0.93;0.40;;;4.80;99.90;;;;;;5035088;28;20526;-58
2021/12/09 08:38:16;;;;;;;0.60;0.43;;;4.90;99.90;;;;;;5033614;28;20962;-58
2021/12/09 08:40:45;;;;;;;4.50;0.63;;;4.80;99.90;;;;;;5032955;28;20510;-58
2021/12/09 08:43:12;;;;;;;1.50;0.40;;;4.90;99.90;;;;;;5033245;28;20456;-58
2021/12/09 08:45:40;;;;;;;1.20;0.40;;;4.80;99.90;;;;;;5032069;28;20543;-58
2021/12/09 08:48:08;;;;;;;0.50;0.30;;;4.80;99.90;;;;;;5033573;28;20821;-58
2021/12/09 08:50:37;;;;;;;2.17;0.50;;;4.80;99.90;;;;;;5033639;28;20550;-59
2021/12/09 08:53:16;;;;;;;0.83;0.43;;;4.80;99.90;;;;;;5032954;28;20567;-58
2021/12/09 08:55:43;;;;;;;0.80;0.60;;;4.80;99.90;;;;;;5034688;28;20452;-57
2021/12/09 08:58:13;;;;;;;1.40;0.50;;;4.70;99.90;;;;;;5034475;28;20527;-56
2021/12/09 09:00:41;;;;;;;3.87;0.90;;;4.70;99.90;;;;;;5033256;28;20456;-58
2021/12/09 09:03:09;;;;;;;1.20;0.60;;;4.80;99.90;;;;;;5033511;28;20452;-58
2021/12/09 09:05:38;;;;;;;0.90;0.40;;;4.70;99.90;;;;;;5033642;28;20455;-57
2021/12/09 09:08:06;;;;;;;0.50;0.47;;;4.70;99.90;;;;;;5034062;28;20441;-58
2021/12/09 09:10:35;;;;;;;2.30;0.70;;;4.70;99.90;;;;;;5032896;28;20444;-57
2021/12/09 09:13:03;;;;;;;2.33;0.53;;;4.70;99.90;;;;;;5032606;28;20567;-57
2021/12/09 09:15:31;;;;;;;0.73;0.50;;;4.70;99.90;;;;;;5031826;28;20431;-58
2021/12/09 09:17:59;;;;;;;3.17;0.60;;;4.60;99.90;;;;;;5032678;28;20463;-58
2021/12/09 09:20:30;;;;;;;0.80;0.43;;;4.70;99.90;;;;;;5034440;28;20546;-57
2021/12/09 09:22:59;;;;;;;0.60;0.50;;;4.70;99.90;;;;;;5028743;28;20451;-58
2021/12/09 09:25:29;;;;;;;1.10;0.60;;;4.70;99.90;;;;;;5043754;28;20537;-57
2021/12/09 09:27:57;;;;;;;4.63;1.47;;;4.80;99.90;;;;;;5033719;28;20448;-58
2021/12/09 09:30:25;;;;;;;1.00;0.65;;;4.90;99.90;;;;;;5032881;28;20479;-58
2021/12/09 09:32:55;;;;;;;0.80;0.60;;;5.10;99.90;;;;;;5033589;28;20320;-62
2021/12/09 09:35:23;;;;;;;3.17;0.60;;;5.00;99.90;;;;;;5030754;28;20541;-56
2021/12/09 09:37:50;;;;;;;1.53;0.60;;;5.00;99.90;;;;;;5028769;28;20542;-59
2021/12/09 09:40:27;;;;;;;2.73;0.57;;;4.90;99.90;;;;;;5030190;28;20457;-57
2021/12/09 09:43:00;;;;;;;0.83;0.50;;;5.00;99.90;;;;;;5031037;28;20456;-57
2021/12/09 09:45:29;;;;;;;0.90;0.50;;;5.00;99.90;;;;;;5030466;28;20464;-58
2021/12/09 09:47:56;;;;;;;4.40;0.50;;;5.00;99.90;;;;;;5031968;28;20444;-58
2021/12/09 09:50:24;;;;;;;2.27;0.57;;;5.00;99.90;;;;;;5030434;28;20826;-58
2021/12/09 09:52:51;;;;;;;1.10;0.53;;;5.10;99.90;;;;;;5030042;28;20566;-57
2021/12/09 09:55:21;;;;;;;4.73;0.50;;;5.20;99.90;;;;;;5028287;28;20574;-57
2021/12/09 09:57:49;;;;;;;3.07;0.67;;;5.30;99.90;;;;;;5030627;28;20445;-58
2021/12/09 10:00:19;;;;;;;0.93;0.53;;;5.40;99.90;;;;;;5032577;28;20857;-57
2021/12/09 10:02:52;;;;;;;2.37;0.50;;;5.30;99.90;;;;;;5027045;28;20514;-58
2021/12/09 10:05:22;;;;;;;0.87;0.50;;;5.50;99.90;;;;;;5023449;28;20452;-59
2021/12/09 10:07:50;;;;;;;2.10;0.60;;;5.70;99.90;;;;;;5031381;28;20628;-59
2021/12/09 10:10:23;;;;;;;0.90;0.60;;;5.60;99.90;;;;;;5030417;28;20510;-58
2021/12/09 10:12:58;;;;;;;0.80;0.50;;;5.60;99.90;;;;;;5032425;28;20938;-60
2021/12/09 10:15:40;;;;;;;1.10;0.40;;;5.70;99.90;;;;;;5028483;28;20452;-58
2021/12/09 10:18:09;;;;;;;2.87;0.50;;;5.70;99.90;;;;;;5031771;28;20534;-59
2021/12/09 10:20:47;;;;;;;1.00;0.50;;;5.80;99.90;;;;;;5032371;28;20848;-59
2021/12/09 10:23:39;;;;;;;0.60;0.50;;;5.80;99.90;;;;;;5031717;28;20876;-59
2021/12/09 10:26:23;;;;;;;1.40;0.50;;;6.30;99.90;;;;;;5010471;28;20546;-59
2021/12/09 10:29:06;;;;;;;0.90;0.50;;;6.50;99.90;;;;;;5031373;28;20476;-60
2021/12/09 10:31:41;;;;;;;1.60;0.80;;;6.60;99.90;;;;;;5028253;28;20449;-59
2021/12/09 10:34:27;;;;;;;1.10;0.67;;;6.70;99.90;;;;;;5027726;28;20470;-59
2021/12/09 10:37:01;;;;;;;2.33;0.50;;;6.60;99.90;;;;;;5019781;28;20518;-60
2021/12/09 10:39:39;;;;;;;0.70;0.40;;;6.50;99.90;;;;;;5025531;28;20922;-59
2021/12/09 10:42:11;;;;;;;0.60;0.40;;;6.30;99.90;;;;;;5028239;28;21076;-57
2021/12/09 10:45:07;;;;;;;3.63;0.60;;;6.10;99.90;;;;;;5030238;28;20444;-58
2021/12/09 10:47:48;;;;;;;1.50;0.57;;;6.20;99.90;;;;;;5028131;28;20539;-58
2021/12/09 10:50:26;;;;;;;9.80;5.23;;;6.10;99.90;;;;;;5029399;28;20878;-58
2021/12/09 10:52:57;;;;;;;0.90;0.60;;;5.90;99.90;;;;;;5028760;28;20490;-57
2021/12/09 10:55:29;;;;;;;2.15;0.70;;;6.00;99.90;;;;;;5027842;28;20473;-57
2021/12/09 10:58:03;;;;;;;0.80;0.57;;;6.00;99.90;;;;;;5029064;28;20204;-56
2021/12/09 11:00:37;;;;;;;1.10;0.50;;;6.00;99.90;;;;;;5030169;28;20721;-56
2021/12/09 11:03:22;;;;;;;1.10;0.50;;;6.00;99.90;;;;;;5031759;28;20514;-57
2021/12/09 11:05:57;;;;;;;0.80;0.50;;;5.90;99.90;;;;;;5031838;28;20448;-56
2021/12/09 11:08:30;;;;;;;1.53;0.50;;;5.80;99.90;;;;;;5032107;28;20506;-57
2021/12/09 11:11:09;;;;;;;0.90;0.50;;;5.90;99.90;;;;;;5029598;28;20448;-57
2021/12/09 11:13:43;;;;;;;0.60;0.40;;;6.30;99.90;;;;;;5031358;28;20789;-49
2021/12/09 11:16:11;;;;;;;1.83;0.40;;;6.30;99.90;;;;;;5030562;28;20478;-53
2021/12/09 11:18:44;;;;;;;1.60;0.40;;;6.70;99.90;;;;;;5030093;28;20523;-51
2021/12/09 11:21:16;;;;;;;0.67;0.33;;;6.70;99.90;;;;;;5022054;28;20456;-53
2021/12/09 11:23:46;;;;;;;3.60;0.40;;;6.60;99.90;;;;;;5031995;28;20755;-53
2021/12/09 11:26:35;;;;;;;3.33;0.40;;;6.50;99.90;;;;;;5034065;28;20456;-53
2021/12/09 11:29:08;;;;;;;0.57;0.50;;;6.40;99.90;;;;;;5032749;28;20759;-52
2021/12/09 11:31:40;;;;;;;1.57;0.40;;;6.80;99.90;;;;;;5031961;28;20543;-54
2021/12/09 11:34:14;;;;;;;1.07;0.30;;;7.20;99.90;;;;;;5031166;28;20444;-55
2021/12/09 11:36:53;;;;;;;0.70;0.50;;;7.00;99.90;;;;;;5034309;28;20463;-53
2021/12/09 11:39:27;;;;;;;0.87;0.47;;;6.80;99.90;;;;;;5032699;28;20973;-51
2021/12/09 11:42:04;;;;;;;2.70;0.40;;;6.80;99.90;;;;;;5031693;28;20458;-53
2021/12/09 11:44:34;;;;;;;2.53;0.40;;;6.70;99.90;;;;;;5024746;28;20479;-54
2021/12/09 11:47:03;;;;;;;1.30;0.50;;;6.70;99.90;;;;;;5030979;28;20445;-52
2021/12/09 11:49:32;;;;;;;0.77;0.50;;;6.60;99.90;;;;;;5035063;28;20342;-55
2021/12/09 11:51:59;;;;;;;0.90;0.50;;;6.60;99.90;;;;;;5033145;28;20459;-53
2021/12/09 11:54:27;;;;;;;0.67;0.40;;;6.70;99.90;;;;;;5031807;28;20499;-54
2021/12/09 11:57:10;;;;;;;0.80;0.40;;;6.60;99.90;;;;;;5032078;28;20464;-52
2021/12/09 12:11:40;;;;;;;1.57;0.40;;;7.20;99.90;;;;;;5027251;28;20474;-51
2021/12/09 12:14:36;;;;;;;0.57;0.30;;;7.10;99.90;;;;;;5024843;28;20484;-51
2021/12/09 12:17:23;;;;;;;0.70;0.40;;;7.00;99.90;;;;;;5030526;28;20944;-49
2021/12/09 12:20:24;;;;;;;0.70;0.40;;;7.00;99.90;;;;;;5031434;28;20448;-53
2021/12/09 12:28:49;;;;;;;0.50;0.30;;;7.90;99.90;;;;;;5008550;28;20874;-51
2021/12/09 12:40:41;;;;;;;0.80;0.37;;;7.30;99.90;;;;;;5033681;28;20491;-52
2021/12/09 12:43:26;;;;;;;0.50;0.40;;;7.30;99.90;;;;;;5034718;28;20448;-51
2021/12/09 12:46:07;;;;;;;0.40;0.30;;;7.40;99.90;;;;;;5033221;28;20448;-54
2021/12/09 12:48:58;;;;;;;1.93;0.30;;;7.10;99.90;;;;;;5033300;28;20463;-52
2021/12/09 12:51:34;;;;;;;0.70;0.30;;;7.00;99.90;;;;;;5034922;28;20459;-54
2021/12/09 12:54:24;;;;;;;0.90;0.40;;;7.00;99.90;;;;;;5032153;28;20744;-53
2021/12/09 12:56:57;;;;;;;1.07;0.30;;;6.80;99.90;;;;;;5031674;28;20555;-52
2021/12/09 12:59:40;;;;;;;0.97;0.30;;;6.80;99.90;;;;;;5031280;28;20627;-50
2021/12/09 13:03:01;;;;;;;2.53;0.40;;;7.00;99.90;;;;;;5030961;28;20594;-53
2021/12/09 13:05:48;;;;;;;1.43;0.50;;;6.70;99.90;;;;;;4998813;28;20456;-53
2021/12/09 13:08:43;;;;;;;1.80;0.40;;;6.70;99.90;;;;;;5034224;28;20464;-55
2021/12/09 13:11:18;;;;;;;0.93;0.47;;;6.80;99.90;;;;;;5032129;28;20451;-57
2021/12/09 13:13:58;;;;;;;0.70;0.30;;;6.90;99.90;;;;;;5033699;28;20564;-54
2021/12/09 13:16:39;;;;;;;0.83;0.50;;;6.70;99.90;;;;;;5032111;28;20902;-53
2021/12/09 13:19:31;;;;;;;2.37;0.50;;;6.60;99.90;;;;;;5033689;28;20539;-52
2021/12/09 13:22:03;;;;;;;3.00;0.50;;;6.50;99.90;;;;;;5031995;28;20777;-56
2021/12/09 13:24:51;;;;;;;0.63;0.30;;;6.50;99.90;;;;;;5031490;28;20441;-54
2021/12/09 13:27:31;;;;;;;1.73;0.40;;;6.60;99.90;;;;;;5032016;28;20475;-55
2021/12/09 13:30:12;;;;;;;0.63;0.40;;;6.60;99.90;;;;;;5032716;28;20452;-57
2021/12/09 13:33:16;;;;;;;2.00;0.40;;;6.70;99.90;;;;;;5012659;28;20489;-58
2021/12/09 13:39:07;;;;;;;1.10;0.30;;;6.70;99.90;;;;;;5033414;28;20416;-53
2021/12/09 13:47:19;;;;;;;1.60;0.40;;;6.20;99.90;;;;;;5034645;28;20463;-56
2021/12/09 13:49:54;;;;;;;0.80;0.40;;;6.20;99.90;;;;;;5033536;28;20452;-56
2021/12/09 13:55:13;;;;;;;3.73;0.70;;;6.10;99.90;;;;;;5033096;28;20553;-54